Time;durP1;ratioP1;P1;durP2;ratioP2;P2;SDS_P1;SDS_P2;PMS_P1;PMS_P2;Temp;Humidity;BMP_temperature;BMP_pressure;BME280_temperature;BME280_humidity;BME280_pressure;Samples;Min_cycle;Max_cycle;Signal;HPM_P1;HPM_P2
2021/07/31 00:00:44;;;;;;;4.00;3.30;;;;;;;;;;5100508;28;20572;-64
2021/07/31 00:03:12;;;;;;;4.30;3.90;;;;;;;;;;5099719;28;20229;-62
2021/07/31 00:05:40;;;;;;;4.60;3.57;;;;;;;;;;5100020;28;20292;-62
2021/07/31 00:08:09;;;;;;;5.80;4.13;;;;;;;;;;5090169;28;20203;-63
2021/07/31 00:10:37;;;;;;;5.37;4.10;;;;;;;;;;5099365;28;20216;-63
2021/07/31 00:13:05;;;;;;;5.03;3.80;;;;;;;;;;5099068;28;20704;-63
2021/07/31 00:15:33;;;;;;;4.50;3.70;;;;;;;;;;5099827;28;20209;-63
2021/07/31 00:18:01;;;;;;;6.10;4.20;;;;;;;;;;5099702;28;20228;-63
2021/07/31 00:20:29;;;;;;;6.23;3.83;;;;;;;;;;5099915;28;20206;-63
2021/07/31 00:22:57;;;;;;;6.07;4.20;;;;;;;;;;5099847;28;20236;-63
2021/07/31 00:25:27;;;;;;;6.07;4.00;;;;;;;;;;5085863;28;20220;-65
2021/07/31 00:27:54;;;;;;;4.53;3.90;;;;;;;;;;5099746;28;20215;-63
2021/07/31 00:30:24;;;;;;;6.67;4.27;;;;;;;;;;5099967;28;20324;-64
2021/07/31 00:32:52;;;;;;;5.50;3.47;;;;;;;;;;5099741;28;20226;-63
2021/07/31 00:35:20;;;;;;;5.40;4.13;;;;;;;;;;5099774;28;20212;-64
2021/07/31 00:37:48;;;;;;;5.07;3.47;;;;;;;;;;5099840;28;20775;-64
2021/07/31 00:40:16;;;;;;;8.17;3.93;;;;;;;;;;5099071;28;20212;-64
2021/07/31 00:42:45;;;;;;;4.10;3.37;;;;;;;;;;5093082;28;20242;-65
2021/07/31 00:45:14;;;;;;;7.37;3.70;;;;;;;;;;5099295;28;20209;-64
2021/07/31 00:47:43;;;;;;;5.20;3.67;;;;;;;;;;5098990;28;20687;-64
2021/07/31 00:50:11;;;;;;;3.83;3.50;;;;;;;;;;5099073;28;20210;-64
2021/07/31 00:52:39;;;;;;;5.17;3.00;;;;;;;;;;5099170;28;20233;-64
2021/07/31 00:55:10;;;;;;;4.60;3.10;;;;;;;;;;5098516;28;20212;-65
2021/07/31 00:57:39;;;;;;;3.30;3.00;;;;;;;;;;5099307;28;20312;-64
2021/07/31 01:00:09;;;;;;;3.73;3.40;;;;;;;;;;5085728;28;20584;-64
2021/07/31 01:02:37;;;;;;;3.50;3.10;;;;;;;;;;5099065;28;20308;-64
2021/07/31 01:05:06;;;;;;;4.10;3.60;;;;;;;;;;5099129;28;20206;-64
2021/07/31 01:07:35;;;;;;;5.33;3.40;;;;;;;;;;5099030;28;20204;-64
2021/07/31 01:10:04;;;;;;;4.90;3.20;;;;;;;;;;5098685;28;20252;-64
2021/07/31 01:12:33;;;;;;;3.87;3.30;;;;;;;;;;5098912;28;20234;-64
2021/07/31 01:15:01;;;;;;;3.77;3.20;;;;;;;;;;5096665;28;20215;-64
2021/07/31 01:17:30;;;;;;;5.73;3.33;;;;;;;;;;5095573;28;20202;-64
2021/07/31 01:19:59;;;;;;;3.90;3.50;;;;;;;;;;5099120;28;20205;-64
2021/07/31 01:22:28;;;;;;;3.50;3.07;;;;;;;;;;5098805;28;20238;-64
2021/07/31 01:24:56;;;;;;;3.23;2.80;;;;;;;;;;5098492;28;20206;-64
2021/07/31 01:27:24;;;;;;;3.57;3.27;;;;;;;;;;5098412;28;20232;-64
2021/07/31 01:29:52;;;;;;;3.17;2.87;;;;;;;;;;5098399;28;20237;-65
2021/07/31 01:32:20;;;;;;;5.77;3.30;;;;;;;;;;5097941;28;20310;-62
2021/07/31 01:34:48;;;;;;;5.23;3.37;;;;;;;;;;5098572;28;20287;-64
2021/07/31 01:37:16;;;;;;;4.03;2.90;;;;;;;;;;5097855;28;20211;-64
2021/07/31 01:39:47;;;;;;;3.50;2.83;;;;;;;;;;5097642;28;20235;-62
2021/07/31 01:42:15;;;;;;;3.87;3.30;;;;;;;;;;5097786;28;20259;-61
2021/07/31 01:44:43;;;;;;;3.40;2.77;;;;;;;;;;5097988;28;20289;-61
2021/07/31 01:47:11;;;;;;;3.57;3.00;;;;;;;;;;5098153;28;20205;-62
2021/07/31 01:49:39;;;;;;;4.97;3.07;;;;;;;;;;5098667;28;20289;-62
2021/07/31 01:52:07;;;;;;;3.77;2.83;;;;;;;;;;5098598;28;20234;-62
2021/07/31 01:54:35;;;;;;;3.97;3.00;;;;;;;;;;5098536;28;20206;-62
2021/07/31 01:57:05;;;;;;;6.90;3.07;;;;;;;;;;5098401;28;20212;-62
2021/07/31 01:59:33;;;;;;;2.87;2.57;;;;;;;;;;5098487;28;20710;-62
2021/07/31 02:02:01;;;;;;;5.00;3.23;;;;;;;;;;5098343;28;20232;-61
2021/07/31 02:04:29;;;;;;;5.67;3.20;;;;;;;;;;5098172;28;20241;-61
2021/07/31 02:06:57;;;;;;;5.63;2.93;;;;;;;;;;5098150;28;20628;-61
2021/07/31 02:09:25;;;;;;;3.53;2.93;;;;;;;;;;5097790;28;20744;-62
2021/07/31 02:11:52;;;;;;;2.90;2.63;;;;;;;;;;5097960;28;20225;-62
2021/07/31 02:14:22;;;;;;;6.70;3.67;;;;;;;;;;5097777;28;20240;-62
2021/07/31 02:16:50;;;;;;;4.97;2.80;;;;;;;;;;5098112;28;20234;-63
2021/07/31 02:19:18;;;;;;;4.73;3.10;;;;;;;;;;5097970;28;20221;-62
2021/07/31 02:21:46;;;;;;;7.17;3.40;;;;;;;;;;5097658;28;20230;-61
2021/07/31 02:24:14;;;;;;;3.27;2.87;;;;;;;;;;5097244;28;20209;-67
2021/07/31 02:26:42;;;;;;;8.93;3.17;;;;;;;;;;5097269;28;20205;-62
2021/07/31 02:29:10;;;;;;;3.60;3.00;;;;;;;;;;5097486;28;20202;-61
2021/07/31 02:31:39;;;;;;;3.43;2.90;;;;;;;;;;5098446;28;20228;-61
2021/07/31 02:34:07;;;;;;;3.17;2.67;;;;;;;;;;5098769;28;20583;-60
2021/07/31 02:36:35;;;;;;;2.87;2.30;;;;;;;;;;5097757;28;20209;-61
2021/07/31 02:39:03;;;;;;;3.97;2.33;;;;;;;;;;5097740;28;20589;-60
2021/07/31 02:41:31;;;;;;;4.50;2.60;;;;;;;;;;5097062;28;20242;-61
2021/07/31 02:43:59;;;;;;;3.00;2.43;;;;;;;;;;5097610;28;20204;-60
2021/07/31 02:46:27;;;;;;;3.70;2.20;;;;;;;;;;5097473;28;20211;-60
2021/07/31 02:48:57;;;;;;;6.07;2.07;;;;;;;;;;5101645;28;20206;-60
2021/07/31 02:51:25;;;;;;;3.00;2.20;;;;;;;;;;5101572;28;20227;-60
2021/07/31 02:53:53;;;;;;;3.53;1.90;;;;;;;;;;5102139;28;20265;-60
2021/07/31 02:56:21;;;;;;;3.70;2.27;;;;;;;;;;5101678;28;20217;-60
2021/07/31 02:58:49;;;;;;;2.97;1.87;;;;;;;;;;5101946;28;20268;-60
2021/07/31 03:01:17;;;;;;;3.20;1.73;;;;;;;;;;5101610;28;20211;-62
2021/07/31 03:03:45;;;;;;;3.77;2.40;;;;;;;;;;5102028;28;20241;-61
2021/07/31 03:06:14;;;;;;;4.67;1.93;;;;;;;;;;5101986;28;20202;-60
2021/07/31 03:08:42;;;;;;;3.70;1.90;;;;;;;;;;5101599;28;20201;-61
2021/07/31 03:11:11;;;;;;;3.13;2.17;;;;;;;;;;5101477;28;20285;-61
2021/07/31 03:13:38;;;;;;;2.33;1.90;;;;;;;;;;5101674;28;20237;-60
2021/07/31 03:16:07;;;;;;;3.63;1.90;;;;;;;;;;5101179;28;20287;-60
2021/07/31 03:18:35;;;;;;;6.00;2.40;;;;;;;;;;5100867;28;20640;-60
2021/07/31 03:21:03;;;;;;;3.83;2.10;;;;;;;;;;5101180;28;20205;-60
2021/07/31 03:23:32;;;;;;;3.43;1.80;;;;;;;;;;5100917;28;20751;-60
2021/07/31 03:26:01;;;;;;;4.07;2.13;;;;;;;;;;5100500;28;20208;-60
2021/07/31 03:28:29;;;;;;;5.03;2.43;;;;;;;;;;5100373;28;20670;-60
2021/07/31 03:30:58;;;;;;;2.23;1.83;;;;;;;;;;5100708;28;20213;-60
2021/07/31 03:33:26;;;;;;;3.10;2.10;;;;;;;;;;5100554;28;20205;-60
2021/07/31 03:35:54;;;;;;;3.57;2.00;;;;;;;;;;5100532;28;20210;-60
2021/07/31 03:38:22;;;;;;;3.73;2.10;;;;;;;;;;5100498;28;20289;-60
2021/07/31 03:40:53;;;;;;;2.10;1.73;;;;;;;;;;5099670;28;20233;-60
2021/07/31 03:43:21;;;;;;;3.83;2.20;;;;;;;;;;5099314;28;20265;-60
2021/07/31 03:45:49;;;;;;;2.47;2.07;;;;;;;;;;5099933;28;20206;-60
2021/07/31 03:48:17;;;;;;;3.20;2.03;;;;;;;;;;5099516;28;20210;-60
2021/07/31 03:50:44;;;;;;;2.70;2.00;;;;;;;;;;5099785;28;20291;-60
2021/07/31 03:53:12;;;;;;;1.97;1.80;;;;;;;;;;5099648;28;20314;-60
2021/07/31 03:55:40;;;;;;;2.37;1.80;;;;;;;;;;5099636;28;20207;-60
2021/07/31 03:58:10;;;;;;;3.30;2.20;;;;;;;;;;5099933;28;20212;-60
2021/07/31 04:00:40;;;;;;;2.33;2.00;;;;;;;;;;5099074;28;20221;-60
2021/07/31 04:03:08;;;;;;;4.70;2.17;;;;;;;;;;5099912;28;20312;-60
2021/07/31 04:05:38;;;;;;;1.70;1.60;;;;;;;;;;5100072;28;20206;-60
2021/07/31 04:08:06;;;;;;;6.13;2.10;;;;;;;;;;5099634;28;20214;-60
2021/07/31 04:10:35;;;;;;;4.00;1.90;;;;;;;;;;5099421;28;20568;-60
2021/07/31 04:13:03;;;;;;;4.23;1.53;;;;;;;;;;5099104;28;20586;-60
2021/07/31 04:15:32;;;;;;;3.23;1.47;;;;;;;;;;5099587;28;20759;-60
2021/07/31 04:18:01;;;;;;;1.73;1.40;;;;;;;;;;5099576;28;20661;-61
2021/07/31 04:20:29;;;;;;;1.83;1.40;;;;;;;;;;5099852;28;20714;-61
2021/07/31 04:22:57;;;;;;;3.83;1.70;;;;;;;;;;5099528;28;20253;-59
2021/07/31 04:25:25;;;;;;;2.97;1.50;;;;;;;;;;5099843;28;20205;-60
2021/07/31 04:27:53;;;;;;;2.30;1.67;;;;;;;;;;5099859;28;20211;-61
2021/07/31 04:30:21;;;;;;;2.50;1.50;;;;;;;;;;5097790;28;20263;-64
2021/07/31 04:32:50;;;;;;;6.77;3.77;;;;;;;;;;5098528;28;20231;-64
2021/07/31 04:35:19;;;;;;;5.33;3.43;;;;;;;;;;5090067;28;20213;-64
2021/07/31 04:37:46;;;;;;;4.87;2.83;;;;;;;;;;5099003;28;20199;-64
2021/07/31 04:40:15;;;;;;;3.77;2.90;;;;;;;;;;5105491;28;20236;-62
2021/07/31 04:42:43;;;;;;;3.97;2.40;;;;;;;;;;5107616;28;20227;-63
2021/07/31 04:45:11;;;;;;;3.40;2.23;;;;;;;;;;5103627;28;20280;-62
2021/07/31 04:47:39;;;;;;;7.93;2.60;;;;;;;;;;5107900;28;20203;-62
2021/07/31 04:50:12;;;;;;;4.63;3.13;;;;;;;;;;5101066;28;20666;-63
2021/07/31 04:52:40;;;;;;;4.93;2.53;;;;;;;;;;5099422;28;20262;-63
2021/07/31 04:55:08;;;;;;;4.07;2.70;;;;;;;;;;5098395;28;20209;-62
2021/07/31 04:57:36;;;;;;;3.57;2.37;;;;;;;;;;5098226;28;20267;-63
2021/07/31 05:00:05;;;;;;;4.40;2.23;;;;;;;;;;5095257;28;20309;-62
2021/07/31 05:02:33;;;;;;;4.67;2.63;;;;;;;;;;5098042;28;20320;-63
2021/07/31 05:05:01;;;;;;;4.93;2.57;;;;;;;;;;5098047;28;20675;-61
2021/07/31 05:07:31;;;;;;;3.47;2.17;;;;;;;;;;5098476;28;20306;-63
2021/07/31 05:09:59;;;;;;;4.90;2.57;;;;;;;;;;5097854;28;20208;-61
2021/07/31 05:12:27;;;;;;;3.83;1.90;;;;;;;;;;5097913;28;20842;-63
2021/07/31 05:14:55;;;;;;;2.40;1.90;;;;;;;;;;5097771;28;20643;-63
2021/07/31 05:17:23;;;;;;;5.87;2.17;;;;;;;;;;5097444;28;20724;-62
2021/07/31 05:19:51;;;;;;;3.70;2.10;;;;;;;;;;5084747;28;20235;-62
2021/07/31 05:22:19;;;;;;;4.70;1.90;;;;;;;;;;5097933;28;20234;-62
2021/07/31 05:24:53;;;;;;;2.00;1.70;;;;;;;;;;5097299;28;20208;-63
2021/07/31 05:27:21;;;;;;;2.60;2.07;;;;;;;;;;5092677;28;20704;-63
2021/07/31 05:29:49;;;;;;;5.47;2.70;;;;;;;;;;5097686;28;20299;-68
2021/07/31 05:32:17;;;;;;;4.83;2.10;;;;;;;;;;5102918;28;20217;-63
2021/07/31 05:34:45;;;;;;;3.67;2.10;;;;;;;;;;5105574;28;20202;-63
2021/07/31 05:37:13;;;;;;;2.97;1.87;;;;;;;;;;5102071;28;20686;-63
2021/07/31 05:39:43;;;;;;;2.63;1.77;;;;;;;;;;5105480;28;20200;-63
2021/07/31 05:42:16;;;;;;;2.53;2.00;;;;;;;;;;5098120;28;20249;-63
2021/07/31 05:44:44;;;;;;;5.33;1.97;;;;;;;;;;5098505;28;20204;-62
2021/07/31 05:47:12;;;;;;;2.97;1.53;;;;;;;;;;5098491;28;20214;-63
2021/07/31 05:49:40;;;;;;;6.60;1.90;;;;;;;;;;5098503;28;20291;-62
2021/07/31 05:52:08;;;;;;;3.63;2.30;;;;;;;;;;5098656;28;20299;-62
2021/07/31 05:54:36;;;;;;;3.00;1.60;;;;;;;;;;5106511;28;20602;-62
2021/07/31 05:57:04;;;;;;;5.93;2.03;;;;;;;;;;5102848;28;20223;-63
2021/07/31 05:59:34;;;;;;;3.90;1.77;;;;;;;;;;5097988;28;20620;-63
2021/07/31 06:02:02;;;;;;;3.40;2.13;;;;;;;;;;5105367;28;20710;-62
2021/07/31 06:04:30;;;;;;;3.10;2.17;;;;;;;;;;5106951;28;20202;-62
2021/07/31 06:06:59;;;;;;;5.13;2.03;;;;;;;;;;5104202;28;20204;-62
2021/07/31 06:09:28;;;;;;;4.40;2.10;;;;;;;;;;5102666;28;20193;-62
2021/07/31 06:11:56;;;;;;;2.90;2.20;;;;;;;;;;5105926;28;20311;-68
2021/07/31 06:14:24;;;;;;;2.80;1.80;;;;;;;;;;5102485;28;20197;-64
2021/07/31 06:17:01;;;;;;;1.50;1.40;;;;;;;;;;5104253;28;20243;-65
2021/07/31 06:19:30;;;;;;;5.57;1.80;;;;;;;;;;5097891;28;20207;-62
2021/07/31 06:21:58;;;;;;;3.93;1.70;;;;;;;;;;5097023;28;20262;-62
2021/07/31 06:24:26;;;;;;;3.10;1.60;;;;;;;;;;5096941;28;20231;-63
2021/07/31 06:26:57;;;;;;;6.43;1.90;;;;;;;;;;5104705;28;20253;-61
2021/07/31 06:29:25;;;;;;;2.73;1.40;;;;;;;;;;5097372;28;20214;-61
2021/07/31 06:31:54;;;;;;;4.03;2.00;;;;;;;;;;5096921;28;20224;-61
2021/07/31 06:34:22;;;;;;;1.77;1.60;;;;;;;;;;5097427;28;20211;-61
2021/07/31 06:36:50;;;;;;;3.90;1.67;;;;;;;;;;5097393;28;20785;-64
2021/07/31 06:39:18;;;;;;;3.37;1.73;;;;;;;;;;5097269;28;20211;-62
2021/07/31 06:41:46;;;;;;;6.20;2.30;;;;;;;;;;5097145;28;20315;-62
2021/07/31 06:44:14;;;;;;;2.63;1.53;;;;;;;;;;5095120;28;20197;-62
2021/07/31 06:46:42;;;;;;;3.80;1.47;;;;;;;;;;5097324;28;20201;-62
2021/07/31 06:49:12;;;;;;;3.37;1.70;;;;;;;;;;5097188;28;20572;-63
2021/07/31 06:51:40;;;;;;;2.40;1.60;;;;;;;;;;5096848;28;20217;-65
2021/07/31 06:54:08;;;;;;;2.10;1.60;;;;;;;;;;5097054;28;20208;-61
2021/07/31 06:56:36;;;;;;;3.63;2.17;;;;;;;;;;5097151;28;20235;-64
2021/07/31 06:59:04;;;;;;;3.50;1.60;;;;;;;;;;5097084;28;20197;-63
2021/07/31 07:01:32;;;;;;;3.50;1.50;;;;;;;;;;5096700;28;20217;-62
2021/07/31 07:04:00;;;;;;;3.13;1.83;;;;;;;;;;5097279;28;20206;-62
2021/07/31 07:06:29;;;;;;;2.27;1.70;;;;;;;;;;5096864;28;20204;-62
2021/07/31 07:08:59;;;;;;;6.83;1.90;;;;;;;;;;5096295;28;20717;-62
2021/07/31 07:11:27;;;;;;;1.70;1.60;;;;;;;;;;5096895;28;20221;-62
2021/07/31 07:13:55;;;;;;;2.60;1.53;;;;;;;;;;5089584;28;20205;-64
2021/07/31 07:16:23;;;;;;;3.93;1.47;;;;;;;;;;5096244;28;20206;-62
2021/07/31 07:18:51;;;;;;;3.03;1.67;;;;;;;;;;5096438;28;20206;-62
2021/07/31 07:21:19;;;;;;;4.50;1.50;;;;;;;;;;5096035;28;20625;-64
2021/07/31 07:23:48;;;;;;;3.33;1.70;;;;;;;;;;5096605;28;20677;-63
2021/07/31 07:26:16;;;;;;;2.33;1.40;;;;;;;;;;5096867;28;20211;-64
2021/07/31 07:28:44;;;;;;;4.70;1.60;;;;;;;;;;5097017;28;20298;-62
2021/07/31 07:31:13;;;;;;;3.10;1.63;;;;;;;;;;5096850;28;20664;-62
2021/07/31 07:33:41;;;;;;;1.87;1.60;;;;;;;;;;5097176;28;20690;-64
2021/07/31 07:36:13;;;;;;;2.57;1.40;;;;;;;;;;5101143;28;20666;-64
2021/07/31 07:38:41;;;;;;;1.33;1.10;;;;;;;;;;5100848;28;20207;-62
2021/07/31 07:41:11;;;;;;;211.67;130.13;;;;;;;;;;5100220;28;20222;-65
2021/07/31 07:43:39;;;;;;;15.40;9.60;;;;;;;;;;5100548;28;20207;-63
2021/07/31 07:46:07;;;;;;;5.63;2.33;;;;;;;;;;5100456;28;20220;-61
2021/07/31 07:48:35;;;;;;;2.20;1.47;;;;;;;;;;5100947;28;20210;-61
2021/07/31 07:51:03;;;;;;;6.30;1.27;;;;;;;;;;5100426;28;20212;-60
2021/07/31 07:53:31;;;;;;;3.73;1.30;;;;;;;;;;5100415;28;20219;-61
2021/07/31 07:55:59;;;;;;;2.53;1.40;;;;;;;;;;5100319;28;20208;-61
2021/07/31 07:58:28;;;;;;;4.00;1.30;;;;;;;;;;5100665;28;20286;-60
2021/07/31 08:00:56;;;;;;;3.03;1.57;;;;;;;;;;5100379;28;20212;-60
2021/07/31 08:03:25;;;;;;;354.47;258.17;;;;;;;;;;5100346;28;20287;-63
2021/07/31 08:05:53;;;;;;;9.47;8.23;;;;;;;;;;5100408;28;20264;-62
2021/07/31 08:08:21;;;;;;;3.23;1.73;;;;;;;;;;5100292;28;20536;-60
2021/07/31 08:10:51;;;;;;;7.53;1.97;;;;;;;;;;5099978;28;20207;-60
2021/07/31 08:13:19;;;;;;;3.70;1.43;;;;;;;;;;5105548;28;20213;-61
2021/07/31 08:15:48;;;;;;;2.67;1.77;;;;;;;;;;5104425;28;20199;-61
2021/07/31 08:18:16;;;;;;;2.77;1.53;;;;;;;;;;5109923;28;20243;-61
2021/07/31 08:20:44;;;;;;;2.90;1.73;;;;;;;;;;5102571;28;20207;-62
2021/07/31 08:23:12;;;;;;;4.83;1.77;;;;;;;;;;5108617;28;20538;-61
2021/07/31 08:25:40;;;;;;;4.60;1.80;;;;;;;;;;5099160;28;20731;-61
2021/07/31 08:28:08;;;;;;;9.43;1.87;;;;;;;;;;5108033;28;20670;-61
2021/07/31 08:30:36;;;;;;;6.50;1.70;;;;;;;;;;5106327;28;20203;-61
2021/07/31 08:33:05;;;;;;;3.53;2.00;;;;;;;;;;5098824;28;20213;-61
2021/07/31 08:35:33;;;;;;;7.20;1.73;;;;;;;;;;5090765;28;20239;-60
2021/07/31 08:38:02;;;;;;;4.10;1.70;;;;;;;;;;5090438;28;20235;-61
2021/07/31 08:40:30;;;;;;;4.90;2.13;;;;;;;;;;5093075;28;20197;-63
2021/07/31 08:42:58;;;;;;;5.00;2.33;;;;;;;;;;5090073;28;20235;-64
2021/07/31 08:45:26;;;;;;;67.67;55.43;;;;;;;;;;5095696;28;20198;-60
2021/07/31 08:47:56;;;;;;;660.20;495.57;;;;;;;;;;5107299;28;20200;-61
2021/07/31 08:50:25;;;;;;;72.97;47.30;;;;;;;;;;5101877;28;20201;-60
2021/07/31 08:52:56;;;;;;;11.13;5.17;;;;;;;;;;5099301;28;20221;-60
2021/07/31 08:55:24;;;;;;;3.03;2.27;;;;;;;;;;5099023;28;20201;-60
2021/07/31 08:57:52;;;;;;;4.73;2.43;;;;;;;;;;5098979;28;20295;-60
2021/07/31 09:00:21;;;;;;;5.07;1.87;;;;;;;;;;5099211;28;20213;-62
2021/07/31 09:02:49;;;;;;;3.97;1.93;;;;;;;;;;5098709;28;20260;-62
2021/07/31 09:05:30;;;;;;;3.13;1.20;;;;;;;;;;5099018;28;20283;-62
2021/07/31 09:08:02;;;;;;;5.43;2.63;;;;;;;;;;5097879;28;20329;-60
2021/07/31 09:10:30;;;;;;;2.00;1.40;;;;;;;;;;5089719;28;20291;-61
2021/07/31 09:12:59;;;;;;;4.90;1.90;;;;;;;;;;5098526;28;20575;-62
2021/07/31 09:15:31;;;;;;;2.53;1.97;;;;;;;;;;5099523;28;20273;-61
2021/07/31 09:18:17;;;;;;;5.17;1.77;;;;;;;;;;5104486;28;20221;-61
2021/07/31 09:20:53;;;;;;;5.00;1.67;;;;;;;;;;5106352;28;20211;-61
2021/07/31 09:23:21;;;;;;;2.60;1.73;;;;;;;;;;5101813;28;20256;-61
2021/07/31 09:25:58;;;;;;;1.43;1.20;;;;;;;;;;5106038;28;20564;-61
2021/07/31 09:28:26;;;;;;;3.03;1.50;;;;;;;;;;5097714;28;20206;-61
2021/07/31 09:30:54;;;;;;;2.60;1.30;;;;;;;;;;5098778;28;20209;-61
2021/07/31 09:33:22;;;;;;;5.60;1.47;;;;;;;;;;5098763;28;20222;-63
2021/07/31 09:36:00;;;;;;;3.43;1.53;;;;;;;;;;5098602;28;20207;-63
2021/07/31 09:38:35;;;;;;;4.03;1.83;;;;;;;;;;5098897;28;20288;-61
2021/07/31 09:41:22;;;;;;;4.23;1.90;;;;;;;;;;5097980;28;20678;-63
2021/07/31 09:44:03;;;;;;;7.17;1.77;;;;;;;;;;5098590;28;20221;-62
2021/07/31 09:46:32;;;;;;;2.10;1.40;;;;;;;;;;5101217;28;20212;-62
2021/07/31 09:49:00;;;;;;;5.47;2.07;;;;;;;;;;5106153;28;20207;-61
2021/07/31 09:51:34;;;;;;;3.40;2.07;;;;;;;;;;5106291;28;20224;-63
2021/07/31 09:54:02;;;;;;;3.90;1.80;;;;;;;;;;5102479;28;20205;-63
2021/07/31 09:56:31;;;;;;;9.47;1.60;;;;;;;;;;5095632;28;20634;-61
2021/07/31 09:59:00;;;;;;;6.13;2.30;;;;;;;;;;5102878;28;20283;-63
2021/07/31 10:01:29;;;;;;;4.43;2.13;;;;;;;;;;5099984;28;20586;-64
2021/07/31 10:03:57;;;;;;;4.23;2.00;;;;;;;;;;5097365;28;20233;-63
2021/07/31 10:06:26;;;;;;;7.03;2.20;;;;;;;;;;5096885;28;20211;-63
2021/07/31 10:08:55;;;;;;;7.03;1.90;;;;;;;;;;5092899;28;20209;-63
2021/07/31 10:11:24;;;;;;;4.60;1.97;;;;;;;;;;5096775;28;20218;-63
2021/07/31 10:13:51;;;;;;;2.97;1.40;;;;;;;;;;5096884;28;20199;-63
2021/07/31 10:16:19;;;;;;;1.83;1.60;;;;;;;;;;5096604;28;20211;-62
2021/07/31 10:18:57;;;;;;;3.40;1.67;;;;;;;;;;5108262;28;20201;-63
2021/07/31 10:21:26;;;;;;;2.57;2.10;;;;;;;;;;5116927;28;20230;-63
2021/07/31 10:23:59;;;;;;;6.37;2.77;;;;;;;;;;5116905;28;20271;-63
2021/07/31 10:26:28;;;;;;;4.60;1.63;;;;;;;;;;5104798;28;20285;-63
2021/07/31 10:28:56;;;;;;;2.20;1.67;;;;;;;;;;5097175;28;20211;-63
2021/07/31 10:31:33;;;;;;;2.53;1.80;;;;;;;;;;5097052;28;20309;-63
2021/07/31 10:34:01;;;;;;;5.93;1.77;;;;;;;;;;5097148;28;20264;-62
2021/07/31 10:36:33;;;;;;;4.27;1.70;;;;;;;;;;5097232;28;20205;-62
2021/07/31 10:39:22;;;;;;;4.93;2.40;;;;;;;;;;5096657;28;20646;-61
2021/07/31 10:41:59;;;;;;;3.70;1.93;;;;;;;;;;5096457;28;20246;-61
2021/07/31 10:44:27;;;;;;;5.93;1.50;;;;;;;;;;5097093;28;20232;-63
2021/07/31 10:47:14;;;;;;;5.83;2.00;;;;;;;;;;5096943;28;20206;-63
2021/07/31 10:49:41;;;;;;;3.97;1.90;;;;;;;;;;5096783;28;20229;-61
2021/07/31 10:52:09;;;;;;;2.60;1.57;;;;;;;;;;5096994;28;20229;-63
2021/07/31 10:54:56;;;;;;;4.57;1.83;;;;;;;;;;5096832;28;20216;-63
2021/07/31 10:57:48;;;;;;;4.23;1.40;;;;;;;;;;5097338;28;20201;-63
2021/07/31 11:00:25;;;;;;;6.37;2.10;;;;;;;;;;5096729;28;20572;-61
2021/07/31 11:02:58;;;;;;;4.13;1.90;;;;;;;;;;5097053;28;20222;-60
2021/07/31 11:05:26;;;;;;;4.77;2.10;;;;;;;;;;5096743;28;20243;-63
2021/07/31 11:08:03;;;;;;;7.23;2.27;;;;;;;;;;5096923;28;20293;-60
2021/07/31 11:10:33;;;;;;;2.60;1.50;;;;;;;;;;5101053;28;20219;-63
2021/07/31 11:13:02;;;;;;;3.30;1.60;;;;;;;;;;5100747;28;20221;-61
2021/07/31 11:15:30;;;;;;;2.33;1.73;;;;;;;;;;5100971;28;20243;-62
2021/07/31 11:17:59;;;;;;;2.17;1.70;;;;;;;;;;5101514;28;20202;-61
2021/07/31 11:20:28;;;;;;;3.67;2.13;;;;;;;;;;5120728;28;20667;-61
2021/07/31 11:22:56;;;;;;;3.80;1.97;;;;;;;;;;5120689;28;20227;-61
2021/07/31 11:25:24;;;;;;;4.60;1.73;;;;;;;;;;5116262;28;20576;-63
2021/07/31 11:28:08;;;;;;;5.07;2.17;;;;;;;;;;5100202;28;20204;-63
2021/07/31 11:30:37;;;;;;;3.03;1.47;;;;;;;;;;5100150;28;20762;-63
2021/07/31 11:33:15;;;;;;;4.83;2.03;;;;;;;;;;5100420;28;20728;-63
2021/07/31 11:35:43;;;;;;;3.00;1.80;;;;;;;;;;5099916;28;20731;-62
2021/07/31 11:38:41;;;;;;;2.47;1.77;;;;;;;;;;5100223;28;20212;-61
2021/07/31 11:41:09;;;;;;;4.17;1.77;;;;;;;;;;5036796;28;20293;-61
2021/07/31 11:43:58;;;;;;;3.27;1.97;;;;;;;;;;5086262;28;20234;-63
2021/07/31 11:46:28;;;;;;;4.73;2.13;;;;;;;;;;5094970;28;20225;-61
2021/07/31 11:48:58;;;;;;;5.57;2.17;;;;;;;;;;5099966;28;20243;-61
2021/07/31 11:51:26;;;;;;;4.57;1.80;;;;;;;;;;5099923;28;20564;-63
2021/07/31 11:53:54;;;;;;;5.43;1.90;;;;;;;;;;5099575;28;20622;-63
2021/07/31 11:56:23;;;;;;;3.83;2.03;;;;;;;;;;5100029;28;20216;-61
2021/07/31 11:58:52;;;;;;;2.97;1.50;;;;;;;;;;5099918;28;20212;-61
2021/07/31 12:01:20;;;;;;;3.20;1.97;;;;;;;;;;5099190;28;20293;-61
2021/07/31 12:03:51;;;;;;;3.13;1.90;;;;;;;;;;5099692;28;20298;-61
2021/07/31 12:06:32;;;;;;;6.50;2.27;;;;;;;;;;5099559;28;20219;-61
2021/07/31 12:09:02;;;;;;;3.77;2.30;;;;;;;;;;5098832;28;20289;-61
2021/07/31 12:11:33;;;;;;;4.27;1.70;;;;;;;;;;5098881;28;20226;-63
2021/07/31 12:14:01;;;;;;;2.63;1.93;;;;;;;;;;5085336;28;20239;-62
2021/07/31 12:16:30;;;;;;;5.13;2.00;;;;;;;;;;5098954;28;20232;-63
2021/07/31 12:18:59;;;;;;;1.80;1.70;;;;;;;;;;5098912;28;20284;-63
2021/07/31 12:21:28;;;;;;;4.03;1.97;;;;;;;;;;5097628;28;20276;-63
2021/07/31 12:23:56;;;;;;;2.80;2.17;;;;;;;;;;5098713;28;20230;-62
2021/07/31 12:26:30;;;;;;;2.90;1.37;;;;;;;;;;5099030;28;20291;-63
2021/07/31 12:28:59;;;;;;;2.40;1.80;;;;;;;;;;5099814;28;20212;-63
2021/07/31 12:31:27;;;;;;;5.77;1.60;;;;;;;;;;5099518;28;20310;-63
2021/07/31 12:33:56;;;;;;;2.37;1.70;;;;;;;;;;5099552;28;20235;-62
2021/07/31 12:36:25;;;;;;;3.57;1.73;;;;;;;;;;5099956;28;20219;-63
2021/07/31 12:38:54;;;;;;;6.00;1.87;;;;;;;;;;5099229;28;20216;-62
2021/07/31 12:41:23;;;;;;;2.57;1.87;;;;;;;;;;5099750;28;20254;-62
2021/07/31 12:43:51;;;;;;;2.53;1.50;;;;;;;;;;5101911;28;20754;-63
2021/07/31 12:46:20;;;;;;;5.93;1.60;;;;;;;;;;5100406;28;20286;-63
2021/07/31 12:48:50;;;;;;;4.43;2.23;;;;;;;;;;5099559;28;20210;-63
2021/07/31 12:51:18;;;;;;;3.77;2.73;;;;;;;;;;5098928;28;20237;-63
2021/07/31 12:53:47;;;;;;;5.17;2.47;;;;;;;;;;5098594;28;20229;-65
2021/07/31 12:56:15;;;;;;;2.03;1.70;;;;;;;;;;5098910;28;20210;-64
2021/07/31 12:58:43;;;;;;;3.50;1.97;;;;;;;;;;5099165;28;20288;-64
2021/07/31 13:01:11;;;;;;;3.80;2.13;;;;;;;;;;5097869;28;20200;-64
2021/07/31 13:03:39;;;;;;;3.20;1.77;;;;;;;;;;5099013;28;20254;-64
2021/07/31 13:06:07;;;;;;;4.07;1.60;;;;;;;;;;5099591;28;20226;-64
2021/07/31 13:08:35;;;;;;;5.60;1.90;;;;;;;;;;5099495;28;20203;-63
2021/07/31 13:11:05;;;;;;;1.63;1.40;;;;;;;;;;5098953;28;20209;-64
2021/07/31 13:13:32;;;;;;;2.70;1.50;;;;;;;;;;5099419;28;20206;-68
2021/07/31 13:16:00;;;;;;;5.00;1.63;;;;;;;;;;5099220;28;20236;-71
2021/07/31 13:18:28;;;;;;;2.43;1.43;;;;;;;;;;5099160;28;20291;-66
2021/07/31 13:20:56;;;;;;;6.67;1.70;;;;;;;;;;5099298;28;20207;-66
2021/07/31 13:23:24;;;;;;;4.57;1.87;;;;;;;;;;5118989;28;20211;-66
2021/07/31 13:25:52;;;;;;;3.33;2.10;;;;;;;;;;5109254;28;20227;-66
2021/07/31 13:28:26;;;;;;;4.30;1.93;;;;;;;;;;5096358;28;20271;-66
2021/07/31 13:30:54;;;;;;;2.87;2.00;;;;;;;;;;5096415;28;20735;-66
2021/07/31 13:33:23;;;;;;;2.13;1.80;;;;;;;;;;5095940;28;20222;-66
2021/07/31 13:35:51;;;;;;;2.93;1.60;;;;;;;;;;5089533;28;20669;-64
2021/07/31 13:38:20;;;;;;;5.20;1.90;;;;;;;;;;5099338;28;20206;-66
2021/07/31 13:40:50;;;;;;;2.30;1.70;;;;;;;;;;5117007;28;20205;-66
2021/07/31 13:43:19;;;;;;;7.10;2.90;;;;;;;;;;5118380;28;20249;-66
2021/07/31 13:45:49;;;;;;;4.30;1.63;;;;;;;;;;5118448;28;20255;-66
2021/07/31 13:48:17;;;;;;;3.70;1.73;;;;;;;;;;5118337;28;20214;-66
2021/07/31 13:50:45;;;;;;;3.60;1.70;;;;;;;;;;5118376;28;20289;-66
2021/07/31 13:53:13;;;;;;;2.70;1.50;;;;;;;;;;5107030;28;20226;-66
2021/07/31 13:55:42;;;;;;;4.43;1.93;;;;;;;;;;5097740;28;20235;-66
2021/07/31 13:58:10;;;;;;;2.13;1.57;;;;;;;;;;5098341;28;20244;-66
2021/07/31 14:00:38;;;;;;;5.87;1.70;;;;;;;;;;5098251;28;20197;-66
2021/07/31 14:03:07;;;;;;;7.37;1.60;;;;;;;;;;5097804;28;20629;-66
2021/07/31 14:05:35;;;;;;;4.70;2.37;;;;;;;;;;5098431;28;20238;-66
2021/07/31 14:08:04;;;;;;;3.70;2.00;;;;;;;;;;5098090;28;20292;-66
2021/07/31 14:10:32;;;;;;;2.87;1.57;;;;;;;;;;5089562;28;20206;-66
2021/07/31 14:13:00;;;;;;;2.13;1.70;;;;;;;;;;5097780;28;20315;-66
2021/07/31 14:15:28;;;;;;;2.57;1.60;;;;;;;;;;5097657;28;20278;-66
2021/07/31 14:17:56;;;;;;;5.93;2.07;;;;;;;;;;5097209;28;20230;-66
2021/07/31 14:20:26;;;;;;;3.90;2.10;;;;;;;;;;5096795;28;20235;-66
2021/07/31 14:22:55;;;;;;;4.30;2.00;;;;;;;;;;5096797;28;20227;-66
2021/07/31 14:25:27;;;;;;;3.10;1.73;;;;;;;;;;5096684;28;20235;-66
2021/07/31 14:27:55;;;;;;;3.37;1.47;;;;;;;;;;5096573;28;20223;-66
2021/07/31 14:30:23;;;;;;;2.80;1.83;;;;;;;;;;5105361;28;20215;-66
2021/07/31 14:32:51;;;;;;;3.10;1.90;;;;;;;;;;5109384;28;20587;-66
2021/07/31 14:35:19;;;;;;;4.23;2.07;;;;;;;;;;5097723;28;20284;-66
2021/07/31 14:37:48;;;;;;;2.53;1.80;;;;;;;;;;5097499;28;20576;-66
2021/07/31 14:40:16;;;;;;;5.33;2.00;;;;;;;;;;5095981;28;20652;-66
2021/07/31 14:42:44;;;;;;;5.37;1.80;;;;;;;;;;5113123;28;20328;-66
2021/07/31 14:45:12;;;;;;;2.97;1.80;;;;;;;;;;5113782;28;20228;-65
2021/07/31 14:47:40;;;;;;;3.90;1.87;;;;;;;;;;5107354;28;20648;-66
2021/07/31 14:50:09;;;;;;;4.57;1.97;;;;;;;;;;5110138;28;20207;-66
2021/07/31 14:52:37;;;;;;;4.93;2.37;;;;;;;;;;5104177;28;20218;-66
2021/07/31 14:55:08;;;;;;;3.57;2.00;;;;;;;;;;5104952;28;20207;-66